Preview of NWS' New Version of Forecast
This preview is not operational and should not be used for support decisions.

Terminal Aerodrome Forecast (TAF)

Issued by National Weather Service (NWS)

                            
000
FTUS42 KMFL 162118 AAA
TAFMIA
TAF AMD
KMIA 162118Z 1621/1724 32008KT P6SM FEW035 SCT050 SCT250
     FM170100 34003KT P6SM FEW040 BKN150
     FM171400 02006KT P6SM SCT250=